sensor_id;sensor_type;location;lat;lon;timestamp;P1;durP1;ratioP1;P2;durP2;ratioP2
7647;SDS011;3866;48.020;11.720;2023-09-30T00:01:50;21.77;;;10.23;;
7647;SDS011;3866;48.020;11.720;2023-09-30T00:04:17;22.10;;;10.90;;
7647;SDS011;3866;48.020;11.720;2023-09-30T00:06:45;25.10;;;11.53;;
7647;SDS011;3866;48.020;11.720;2023-09-30T00:09:13;23.50;;;10.77;;
7647;SDS011;3866;48.020;11.720;2023-09-30T00:11:41;21.63;;;11.37;;
7647;SDS011;3866;48.020;11.720;2023-09-30T00:14:09;24.47;;;11.67;;
7647;SDS011;3866;48.020;11.720;2023-09-30T00:16:37;23.10;;;10.90;;
7647;SDS011;3866;48.020;11.720;2023-09-30T00:19:06;26.57;;;11.20;;
7647;SDS011;3866;48.020;11.720;2023-09-30T00:21:33;22.73;;;11.40;;
7647;SDS011;3866;48.020;11.720;2023-09-30T00:24:01;24.80;;;12.80;;
7647;SDS011;3866;48.020;11.720;2023-09-30T00:26:28;22.87;;;11.43;;
7647;SDS011;3866;48.020;11.720;2023-09-30T00:28:55;27.53;;;11.67;;
7647;SDS011;3866;48.020;11.720;2023-09-30T00:31:22;23.67;;;11.33;;
7647;SDS011;3866;48.020;11.720;2023-09-30T00:33:51;24.37;;;11.53;;
7647;SDS011;3866;48.020;11.720;2023-09-30T00:36:20;23.40;;;11.77;;
7647;SDS011;3866;48.020;11.720;2023-09-30T00:38:49;27.57;;;14.10;;
7647;SDS011;3866;48.020;11.720;2023-09-30T00:41:18;22.47;;;11.27;;
7647;SDS011;3866;48.020;11.720;2023-09-30T00:43:46;27.17;;;12.23;;
7647;SDS011;3866;48.020;11.720;2023-09-30T00:46:17;22.83;;;11.73;;
7647;SDS011;3866;48.020;11.720;2023-09-30T00:48:52;23.60;;;11.67;;
7647;SDS011;3866;48.020;11.720;2023-09-30T00:51:20;24.87;;;12.50;;
7647;SDS011;3866;48.020;11.720;2023-09-30T00:53:49;21.97;;;11.63;;
7647;SDS011;3866;48.020;11.720;2023-09-30T00:56:18;21.87;;;11.60;;
7647;SDS011;3866;48.020;11.720;2023-09-30T00:58:47;25.80;;;12.60;;
7647;SDS011;3866;48.020;11.720;2023-09-30T01:01:17;28.67;;;12.23;;
7647;SDS011;3866;48.020;11.720;2023-09-30T01:03:47;24.33;;;12.23;;
7647;SDS011;3866;48.020;11.720;2023-09-30T01:06:16;24.47;;;11.97;;
7647;SDS011;3866;48.020;11.720;2023-09-30T01:08:44;25.87;;;11.77;;
7647;SDS011;3866;48.020;11.720;2023-09-30T01:11:12;24.03;;;12.47;;
7647;SDS011;3866;48.020;11.720;2023-09-30T01:13:41;24.83;;;12.70;;
7647;SDS011;3866;48.020;11.720;2023-09-30T01:16:11;25.77;;;12.60;;
7647;SDS011;3866;48.020;11.720;2023-09-30T01:18:40;26.07;;;12.80;;
7647;SDS011;3866;48.020;11.720;2023-09-30T01:21:08;26.77;;;13.07;;
7647;SDS011;3866;48.020;11.720;2023-09-30T01:23:37;26.53;;;12.27;;
7647;SDS011;3866;48.020;11.720;2023-09-30T01:26:06;26.63;;;12.63;;
7647;SDS011;3866;48.020;11.720;2023-09-30T01:28:35;28.27;;;13.10;;
7647;SDS011;3866;48.020;11.720;2023-09-30T01:31:04;25.73;;;13.07;;
7647;SDS011;3866;48.020;11.720;2023-09-30T01:33:34;23.03;;;12.57;;
7647;SDS011;3866;48.020;11.720;2023-09-30T01:36:01;26.10;;;13.37;;
7647;SDS011;3866;48.020;11.720;2023-09-30T01:38:29;30.40;;;16.07;;
7647;SDS011;3866;48.020;11.720;2023-09-30T01:40:58;23.73;;;12.90;;
7647;SDS011;3866;48.020;11.720;2023-09-30T01:43:26;27.53;;;13.30;;
7647;SDS011;3866;48.020;11.720;2023-09-30T01:45:54;27.87;;;13.17;;
7647;SDS011;3866;48.020;11.720;2023-09-30T01:48:23;24.27;;;12.43;;
7647;SDS011;3866;48.020;11.720;2023-09-30T01:50:51;26.27;;;12.73;;
7647;SDS011;3866;48.020;11.720;2023-09-30T01:53:19;23.33;;;12.43;;
7647;SDS011;3866;48.020;11.720;2023-09-30T01:55:49;25.43;;;11.70;;
7647;SDS011;3866;48.020;11.720;2023-09-30T01:58:18;26.53;;;13.27;;
7647;SDS011;3866;48.020;11.720;2023-09-30T02:00:46;28.60;;;12.73;;
7647;SDS011;3866;48.020;11.720;2023-09-30T02:03:14;27.97;;;13.27;;
7647;SDS011;3866;48.020;11.720;2023-09-30T02:05:43;23.83;;;12.70;;
7647;SDS011;3866;48.020;11.720;2023-09-30T02:08:11;25.70;;;13.50;;
7647;SDS011;3866;48.020;11.720;2023-09-30T02:10:38;26.07;;;12.30;;
7647;SDS011;3866;48.020;11.720;2023-09-30T02:13:07;26.87;;;13.43;;
7647;SDS011;3866;48.020;11.720;2023-09-30T02:15:39;27.63;;;13.17;;
7647;SDS011;3866;48.020;11.720;2023-09-30T02:18:06;27.53;;;12.33;;
7647;SDS011;3866;48.020;11.720;2023-09-30T02:20:35;26.23;;;12.43;;
7647;SDS011;3866;48.020;11.720;2023-09-30T02:23:05;25.47;;;12.60;;
7647;SDS011;3866;48.020;11.720;2023-09-30T02:25:34;26.53;;;12.90;;
7647;SDS011;3866;48.020;11.720;2023-09-30T02:28:02;27.13;;;13.00;;
7647;SDS011;3866;48.020;11.720;2023-09-30T02:30:30;25.83;;;12.30;;
7647;SDS011;3866;48.020;11.720;2023-09-30T02:32:59;23.23;;;12.27;;
7647;SDS011;3866;48.020;11.720;2023-09-30T02:35:27;24.00;;;12.10;;
7647;SDS011;3866;48.020;11.720;2023-09-30T02:37:54;25.40;;;12.87;;
7647;SDS011;3866;48.020;11.720;2023-09-30T02:40:22;27.33;;;12.80;;
7647;SDS011;3866;48.020;11.720;2023-09-30T02:42:51;27.97;;;13.87;;
7647;SDS011;3866;48.020;11.720;2023-09-30T02:45:20;28.70;;;13.97;;
7647;SDS011;3866;48.020;11.720;2023-09-30T02:47:49;26.83;;;13.30;;
7647;SDS011;3866;48.020;11.720;2023-09-30T02:50:18;25.27;;;12.80;;
7647;SDS011;3866;48.020;11.720;2023-09-30T02:52:47;27.43;;;13.60;;
7647;SDS011;3866;48.020;11.720;2023-09-30T02:55:16;23.67;;;12.77;;
7647;SDS011;3866;48.020;11.720;2023-09-30T02:57:44;25.80;;;12.33;;
7647;SDS011;3866;48.020;11.720;2023-09-30T03:00:13;26.53;;;12.53;;
7647;SDS011;3866;48.020;11.720;2023-09-30T03:02:50;25.70;;;12.40;;
7647;SDS011;3866;48.020;11.720;2023-09-30T03:05:20;26.93;;;12.60;;
7647;SDS011;3866;48.020;11.720;2023-09-30T03:07:48;25.43;;;13.20;;
7647;SDS011;3866;48.020;11.720;2023-09-30T03:10:18;26.67;;;12.53;;
7647;SDS011;3866;48.020;11.720;2023-09-30T03:12:47;27.90;;;12.07;;
7647;SDS011;3866;48.020;11.720;2023-09-30T03:15:14;25.57;;;12.93;;
7647;SDS011;3866;48.020;11.720;2023-09-30T03:17:42;26.77;;;13.00;;
7647;SDS011;3866;48.020;11.720;2023-09-30T03:20:10;25.07;;;12.23;;
7647;SDS011;3866;48.020;11.720;2023-09-30T03:22:42;23.50;;;12.37;;
7647;SDS011;3866;48.020;11.720;2023-09-30T03:25:13;28.57;;;11.77;;
7647;SDS011;3866;48.020;11.720;2023-09-30T03:27:42;26.03;;;11.93;;
7647;SDS011;3866;48.020;11.720;2023-09-30T03:30:13;25.50;;;11.77;;
7647;SDS011;3866;48.020;11.720;2023-09-30T03:32:41;25.03;;;11.47;;
7647;SDS011;3866;48.020;11.720;2023-09-30T03:35:10;26.03;;;12.73;;
7647;SDS011;3866;48.020;11.720;2023-09-30T03:37:43;28.83;;;11.80;;
7647;SDS011;3866;48.020;11.720;2023-09-30T03:40:13;22.70;;;11.27;;
7647;SDS011;3866;48.020;11.720;2023-09-30T03:42:45;21.97;;;11.27;;
7647;SDS011;3866;48.020;11.720;2023-09-30T03:45:15;26.00;;;11.67;;
7647;SDS011;3866;48.020;11.720;2023-09-30T03:47:44;25.53;;;12.13;;
7647;SDS011;3866;48.020;11.720;2023-09-30T03:50:14;22.87;;;11.40;;
7647;SDS011;3866;48.020;11.720;2023-09-30T03:52:46;23.63;;;11.47;;
7647;SDS011;3866;48.020;11.720;2023-09-30T03:55:15;28.47;;;11.80;;
7647;SDS011;3866;48.020;11.720;2023-09-30T03:57:46;20.77;;;10.73;;
7647;SDS011;3866;48.020;11.720;2023-09-30T04:00:15;23.07;;;12.20;;
7647;SDS011;3866;48.020;11.720;2023-09-30T04:02:45;21.80;;;11.10;;
7647;SDS011;3866;48.020;11.720;2023-09-30T04:05:15;19.03;;;10.73;;
7647;SDS011;3866;48.020;11.720;2023-09-30T04:07:44;26.77;;;11.87;;
7647;SDS011;3866;48.020;11.720;2023-09-30T04:10:13;25.77;;;11.47;;
7647;SDS011;3866;48.020;11.720;2023-09-30T04:12:41;21.10;;;11.37;;
7647;SDS011;3866;48.020;11.720;2023-09-30T04:15:08;22.23;;;11.03;;
7647;SDS011;3866;48.020;11.720;2023-09-30T04:17:37;22.57;;;11.13;;
7647;SDS011;3866;48.020;11.720;2023-09-30T04:20:06;24.00;;;10.77;;
7647;SDS011;3866;48.020;11.720;2023-09-30T04:22:36;25.17;;;11.07;;
7647;SDS011;3866;48.020;11.720;2023-09-30T04:25:07;26.70;;;12.20;;
7647;SDS011;3866;48.020;11.720;2023-09-30T04:27:37;23.53;;;11.20;;
7647;SDS011;3866;48.020;11.720;2023-09-30T04:30:05;25.03;;;11.60;;
7647;SDS011;3866;48.020;11.720;2023-09-30T04:32:34;25.07;;;12.17;;
7647;SDS011;3866;48.020;11.720;2023-09-30T04:35:02;25.13;;;11.67;;
7647;SDS011;3866;48.020;11.720;2023-09-30T04:37:31;22.83;;;11.70;;
7647;SDS011;3866;48.020;11.720;2023-09-30T04:39:59;20.27;;;11.00;;
7647;SDS011;3866;48.020;11.720;2023-09-30T04:42:28;23.13;;;11.20;;
7647;SDS011;3866;48.020;11.720;2023-09-30T04:44:57;21.27;;;10.77;;
7647;SDS011;3866;48.020;11.720;2023-09-30T04:47:26;20.27;;;10.83;;
7647;SDS011;3866;48.020;11.720;2023-09-30T04:49:54;22.63;;;11.17;;
7647;SDS011;3866;48.020;11.720;2023-09-30T04:52:24;25.40;;;12.00;;
7647;SDS011;3866;48.020;11.720;2023-09-30T04:54:54;20.77;;;10.30;;
7647;SDS011;3866;48.020;11.720;2023-09-30T04:57:21;22.40;;;10.97;;
7647;SDS011;3866;48.020;11.720;2023-09-30T04:59:50;20.43;;;10.27;;
7647;SDS011;3866;48.020;11.720;2023-09-30T05:02:18;21.27;;;11.17;;
7647;SDS011;3866;48.020;11.720;2023-09-30T05:04:46;21.80;;;10.40;;
7647;SDS011;3866;48.020;11.720;2023-09-30T05:07:14;23.90;;;10.80;;
7647;SDS011;3866;48.020;11.720;2023-09-30T05:09:43;20.97;;;10.30;;
7647;SDS011;3866;48.020;11.720;2023-09-30T05:12:11;21.53;;;10.53;;
7647;SDS011;3866;48.020;11.720;2023-09-30T05:14:38;23.77;;;10.03;;
7647;SDS011;3866;48.020;11.720;2023-09-30T05:17:07;22.63;;;9.77;;
7647;SDS011;3866;48.020;11.720;2023-09-30T05:19:35;20.00;;;9.63;;
7647;SDS011;3866;48.020;11.720;2023-09-30T05:22:04;20.00;;;9.93;;
7647;SDS011;3866;48.020;11.720;2023-09-30T05:24:32;22.17;;;11.10;;
7647;SDS011;3866;48.020;11.720;2023-09-30T05:27:00;18.40;;;9.97;;
7647;SDS011;3866;48.020;11.720;2023-09-30T05:29:28;19.90;;;10.20;;
7647;SDS011;3866;48.020;11.720;2023-09-30T05:31:58;19.53;;;9.17;;
7647;SDS011;3866;48.020;11.720;2023-09-30T05:34:28;21.87;;;10.67;;
7647;SDS011;3866;48.020;11.720;2023-09-30T05:36:56;23.43;;;10.70;;
7647;SDS011;3866;48.020;11.720;2023-09-30T05:39:24;22.70;;;11.23;;
7647;SDS011;3866;48.020;11.720;2023-09-30T05:41:53;20.13;;;10.47;;
7647;SDS011;3866;48.020;11.720;2023-09-30T05:44:21;20.67;;;9.93;;
7647;SDS011;3866;48.020;11.720;2023-09-30T05:46:50;19.70;;;9.93;;
7647;SDS011;3866;48.020;11.720;2023-09-30T05:49:17;22.63;;;10.77;;
7647;SDS011;3866;48.020;11.720;2023-09-30T05:54:29;20.83;;;9.90;;
7647;SDS011;3866;48.020;11.720;2023-09-30T05:56:55;17.37;;;9.30;;
7647;SDS011;3866;48.020;11.720;2023-09-30T05:59:22;21.67;;;11.10;;
7647;SDS011;3866;48.020;11.720;2023-09-30T06:01:51;21.80;;;10.33;;
7647;SDS011;3866;48.020;11.720;2023-09-30T06:04:17;20.70;;;10.40;;
7647;SDS011;3866;48.020;11.720;2023-09-30T06:06:46;22.90;;;9.70;;
7647;SDS011;3866;48.020;11.720;2023-09-30T06:09:16;21.23;;;9.77;;
7647;SDS011;3866;48.020;11.720;2023-09-30T06:11:43;22.57;;;12.17;;
7647;SDS011;3866;48.020;11.720;2023-09-30T06:14:12;22.07;;;11.23;;
7647;SDS011;3866;48.020;11.720;2023-09-30T06:16:40;21.93;;;10.00;;
7647;SDS011;3866;48.020;11.720;2023-09-30T06:19:09;20.87;;;10.40;;
7647;SDS011;3866;48.020;11.720;2023-09-30T06:21:36;21.33;;;10.10;;
7647;SDS011;3866;48.020;11.720;2023-09-30T06:24:05;22.30;;;9.73;;
7647;SDS011;3866;48.020;11.720;2023-09-30T06:26:34;19.30;;;9.87;;
7647;SDS011;3866;48.020;11.720;2023-09-30T06:29:05;18.23;;;9.57;;
7647;SDS011;3866;48.020;11.720;2023-09-30T06:31:33;19.27;;;9.47;;
7647;SDS011;3866;48.020;11.720;2023-09-30T06:34:02;22.27;;;9.60;;
7647;SDS011;3866;48.020;11.720;2023-09-30T06:36:30;20.63;;;9.10;;
7647;SDS011;3866;48.020;11.720;2023-09-30T06:38:59;20.90;;;9.13;;
7647;SDS011;3866;48.020;11.720;2023-09-30T06:41:28;19.97;;;10.00;;
7647;SDS011;3866;48.020;11.720;2023-09-30T06:43:58;16.37;;;8.53;;
7647;SDS011;3866;48.020;11.720;2023-09-30T06:46:25;17.13;;;8.33;;
7647;SDS011;3866;48.020;11.720;2023-09-30T06:48:54;15.73;;;8.10;;
7647;SDS011;3866;48.020;11.720;2023-09-30T06:51:22;17.20;;;7.83;;
7647;SDS011;3866;48.020;11.720;2023-09-30T06:53:50;17.87;;;8.60;;
7647;SDS011;3866;48.020;11.720;2023-09-30T06:56:18;16.90;;;8.70;;
7647;SDS011;3866;48.020;11.720;2023-09-30T06:58:45;18.53;;;8.53;;
7647;SDS011;3866;48.020;11.720;2023-09-30T07:01:16;20.37;;;10.63;;
7647;SDS011;3866;48.020;11.720;2023-09-30T07:03:43;18.17;;;9.00;;
7647;SDS011;3866;48.020;11.720;2023-09-30T07:06:10;17.57;;;7.87;;
7647;SDS011;3866;48.020;11.720;2023-09-30T07:08:37;16.93;;;7.97;;
7647;SDS011;3866;48.020;11.720;2023-09-30T07:11:04;15.43;;;8.13;;
7647;SDS011;3866;48.020;11.720;2023-09-30T07:13:32;17.00;;;8.57;;
7647;SDS011;3866;48.020;11.720;2023-09-30T07:16:00;18.00;;;8.53;;
7647;SDS011;3866;48.020;11.720;2023-09-30T07:18:28;16.27;;;7.90;;
7647;SDS011;3866;48.020;11.720;2023-09-30T07:20:55;16.60;;;7.97;;
7647;SDS011;3866;48.020;11.720;2023-09-30T07:23:22;13.77;;;7.20;;
7647;SDS011;3866;48.020;11.720;2023-09-30T07:25:49;16.47;;;8.00;;
7647;SDS011;3866;48.020;11.720;2023-09-30T07:28:16;15.23;;;7.63;;
7647;SDS011;3866;48.020;11.720;2023-09-30T07:30:43;19.07;;;8.03;;
7647;SDS011;3866;48.020;11.720;2023-09-30T07:33:10;12.57;;;6.33;;
7647;SDS011;3866;48.020;11.720;2023-09-30T07:35:38;14.57;;;6.77;;
7647;SDS011;3866;48.020;11.720;2023-09-30T07:38:05;11.73;;;6.03;;
7647;SDS011;3866;48.020;11.720;2023-09-30T07:40:32;11.80;;;5.50;;
7647;SDS011;3866;48.020;11.720;2023-09-30T07:42:59;13.00;;;6.20;;
7647;SDS011;3866;48.020;11.720;2023-09-30T07:45:26;13.40;;;6.47;;
7647;SDS011;3866;48.020;11.720;2023-09-30T07:47:53;14.93;;;7.00;;
7647;SDS011;3866;48.020;11.720;2023-09-30T07:50:20;13.37;;;6.40;;
7647;SDS011;3866;48.020;11.720;2023-09-30T07:52:48;14.47;;;6.33;;
7647;SDS011;3866;48.020;11.720;2023-09-30T07:55:15;14.47;;;6.30;;
7647;SDS011;3866;48.020;11.720;2023-09-30T07:57:42;16.17;;;6.53;;
7647;SDS011;3866;48.020;11.720;2023-09-30T08:00:11;14.27;;;6.07;;
7647;SDS011;3866;48.020;11.720;2023-09-30T08:02:41;13.23;;;6.60;;
7647;SDS011;3866;48.020;11.720;2023-09-30T08:05:08;10.80;;;5.97;;
7647;SDS011;3866;48.020;11.720;2023-09-30T08:07:36;12.10;;;6.03;;
7647;SDS011;3866;48.020;11.720;2023-09-30T08:10:05;12.97;;;5.63;;
7647;SDS011;3866;48.020;11.720;2023-09-30T08:12:37;12.10;;;5.80;;
7647;SDS011;3866;48.020;11.720;2023-09-30T08:15:04;14.40;;;6.83;;
7647;SDS011;3866;48.020;11.720;2023-09-30T08:17:32;14.27;;;7.00;;
7647;SDS011;3866;48.020;11.720;2023-09-30T08:19:59;13.10;;;6.57;;
7647;SDS011;3866;48.020;11.720;2023-09-30T08:22:26;16.40;;;7.10;;
7647;SDS011;3866;48.020;11.720;2023-09-30T08:24:53;13.50;;;5.93;;
7647;SDS011;3866;48.020;11.720;2023-09-30T08:27:22;14.00;;;6.50;;
7647;SDS011;3866;48.020;11.720;2023-09-30T08:29:52;13.13;;;6.37;;
7647;SDS011;3866;48.020;11.720;2023-09-30T08:32:19;12.17;;;5.97;;
7647;SDS011;3866;48.020;11.720;2023-09-30T08:34:46;11.10;;;5.70;;
7647;SDS011;3866;48.020;11.720;2023-09-30T08:37:17;11.60;;;5.47;;
7647;SDS011;3866;48.020;11.720;2023-09-30T08:39:45;12.67;;;5.87;;
7647;SDS011;3866;48.020;11.720;2023-09-30T08:42:12;12.87;;;5.70;;
7647;SDS011;3866;48.020;11.720;2023-09-30T08:44:40;11.60;;;6.03;;
7647;SDS011;3866;48.020;11.720;2023-09-30T08:47:11;13.53;;;6.67;;
7647;SDS011;3866;48.020;11.720;2023-09-30T08:49:44;12.03;;;5.90;;
7647;SDS011;3866;48.020;11.720;2023-09-30T08:52:14;13.13;;;6.77;;
7647;SDS011;3866;48.020;11.720;2023-09-30T08:54:42;12.23;;;6.13;;
7647;SDS011;3866;48.020;11.720;2023-09-30T08:57:12;12.00;;;6.03;;
7647;SDS011;3866;48.020;11.720;2023-09-30T08:59:46;12.53;;;5.87;;
7647;SDS011;3866;48.020;11.720;2023-09-30T09:02:15;12.90;;;6.07;;
7647;SDS011;3866;48.020;11.720;2023-09-30T09:04:45;11.53;;;6.10;;
7647;SDS011;3866;48.020;11.720;2023-09-30T09:07:14;14.63;;;6.43;;
7647;SDS011;3866;48.020;11.720;2023-09-30T09:09:41;10.83;;;6.10;;
7647;SDS011;3866;48.020;11.720;2023-09-30T09:12:28;12.63;;;6.30;;
7647;SDS011;3866;48.020;11.720;2023-09-30T09:14:57;16.70;;;7.07;;
7647;SDS011;3866;48.020;11.720;2023-09-30T09:17:25;11.47;;;5.80;;
7647;SDS011;3866;48.020;11.720;2023-09-30T09:20:08;13.33;;;6.47;;
7647;SDS011;3866;48.020;11.720;2023-09-30T09:22:40;12.93;;;6.93;;
7647;SDS011;3866;48.020;11.720;2023-09-30T09:25:09;13.70;;;6.73;;
7647;SDS011;3866;48.020;11.720;2023-09-30T09:27:37;10.73;;;6.17;;
7647;SDS011;3866;48.020;11.720;2023-09-30T09:30:16;13.03;;;6.40;;
7647;SDS011;3866;48.020;11.720;2023-09-30T09:32:58;14.80;;;7.20;;
7647;SDS011;3866;48.020;11.720;2023-09-30T09:35:28;15.83;;;7.93;;
7647;SDS011;3866;48.020;11.720;2023-09-30T09:38:03;15.03;;;7.57;;
7647;SDS011;3866;48.020;11.720;2023-09-30T09:40:33;13.97;;;7.10;;
7647;SDS011;3866;48.020;11.720;2023-09-30T09:43:02;11.50;;;7.07;;
7647;SDS011;3866;48.020;11.720;2023-09-30T09:45:36;14.10;;;7.17;;
7647;SDS011;3866;48.020;11.720;2023-09-30T09:48:09;11.10;;;5.90;;
7647;SDS011;3866;48.020;11.720;2023-09-30T09:50:40;14.90;;;7.23;;
7647;SDS011;3866;48.020;11.720;2023-09-30T09:53:11;13.77;;;7.17;;
7647;SDS011;3866;48.020;11.720;2023-09-30T09:55:41;13.40;;;7.03;;
7647;SDS011;3866;48.020;11.720;2023-09-30T09:58:10;16.77;;;7.87;;
7647;SDS011;3866;48.020;11.720;2023-09-30T10:00:41;14.50;;;6.97;;
7647;SDS011;3866;48.020;11.720;2023-09-30T10:03:13;14.50;;;7.67;;
7647;SDS011;3866;48.020;11.720;2023-09-30T10:05:40;15.63;;;7.70;;
7647;SDS011;3866;48.020;11.720;2023-09-30T10:08:14;14.23;;;7.37;;
7647;SDS011;3866;48.020;11.720;2023-09-30T10:10:45;14.47;;;7.50;;
7647;SDS011;3866;48.020;11.720;2023-09-30T10:19:20;15.03;;;7.40;;
7647;SDS011;3866;48.020;11.720;2023-09-30T10:24:47;15.50;;;7.60;;
7647;SDS011;3866;48.020;11.720;2023-09-30T10:27:29;15.77;;;7.27;;
7647;SDS011;3866;48.020;11.720;2023-09-30T10:29:59;16.07;;;7.40;;
7647;SDS011;3866;48.020;11.720;2023-09-30T10:35:46;17.03;;;8.17;;
7647;SDS011;3866;48.020;11.720;2023-09-30T10:38:38;15.13;;;8.07;;
7647;SDS011;3866;48.020;11.720;2023-09-30T10:41:08;19.37;;;9.53;;
7647;SDS011;3866;48.020;11.720;2023-09-30T10:43:37;19.00;;;9.43;;
7647;SDS011;3866;48.020;11.720;2023-09-30T10:48:57;17.67;;;9.57;;
7647;SDS011;3866;48.020;11.720;2023-09-30T10:51:42;19.37;;;9.80;;
7647;SDS011;3866;48.020;11.720;2023-09-30T10:54:10;16.67;;;8.90;;
7647;SDS011;3866;48.020;11.720;2023-09-30T10:56:39;17.13;;;9.57;;
7647;SDS011;3866;48.020;11.720;2023-09-30T10:59:06;17.33;;;8.87;;
7647;SDS011;3866;48.020;11.720;2023-09-30T11:01:34;23.07;;;9.93;;
7647;SDS011;3866;48.020;11.720;2023-09-30T11:04:03;16.33;;;8.47;;
7647;SDS011;3866;48.020;11.720;2023-09-30T11:06:32;18.73;;;9.10;;
7647;SDS011;3866;48.020;11.720;2023-09-30T11:08:59;17.13;;;9.07;;
7647;SDS011;3866;48.020;11.720;2023-09-30T11:11:35;17.23;;;8.93;;
7647;SDS011;3866;48.020;11.720;2023-09-30T11:14:16;18.70;;;9.30;;
7647;SDS011;3866;48.020;11.720;2023-09-30T11:16:44;17.40;;;9.33;;
7647;SDS011;3866;48.020;11.720;2023-09-30T11:19:14;18.10;;;9.43;;
7647;SDS011;3866;48.020;11.720;2023-09-30T11:21:42;21.23;;;12.53;;
7647;SDS011;3866;48.020;11.720;2023-09-30T11:24:11;30.43;;;20.43;;
7647;SDS011;3866;48.020;11.720;2023-09-30T11:26:42;18.20;;;9.43;;
7647;SDS011;3866;48.020;11.720;2023-09-30T11:29:11;14.70;;;8.37;;
7647;SDS011;3866;48.020;11.720;2023-09-30T11:31:41;16.13;;;8.87;;
7647;SDS011;3866;48.020;11.720;2023-09-30T11:34:10;15.93;;;8.83;;
7647;SDS011;3866;48.020;11.720;2023-09-30T11:36:40;20.33;;;10.20;;
7647;SDS011;3866;48.020;11.720;2023-09-30T11:39:21;17.47;;;9.77;;
7647;SDS011;3866;48.020;11.720;2023-09-30T11:41:48;16.63;;;8.83;;
7647;SDS011;3866;48.020;11.720;2023-09-30T11:44:18;21.47;;;11.30;;
7647;SDS011;3866;48.020;11.720;2023-09-30T11:46:49;24.40;;;12.27;;
7647;SDS011;3866;48.020;11.720;2023-09-30T11:49:27;25.63;;;12.73;;
7647;SDS011;3866;48.020;11.720;2023-09-30T11:51:59;22.30;;;10.70;;
7647;SDS011;3866;48.020;11.720;2023-09-30T11:54:29;18.87;;;9.60;;
7647;SDS011;3866;48.020;11.720;2023-09-30T11:57:06;20.57;;;11.20;;
7647;SDS011;3866;48.020;11.720;2023-09-30T11:59:36;22.80;;;11.73;;
7647;SDS011;3866;48.020;11.720;2023-09-30T12:02:06;26.47;;;12.30;;
7647;SDS011;3866;48.020;11.720;2023-09-30T12:04:34;21.03;;;10.33;;
7647;SDS011;3866;48.020;11.720;2023-09-30T12:07:02;18.70;;;9.17;;
7647;SDS011;3866;48.020;11.720;2023-09-30T12:09:30;20.33;;;9.97;;
7647;SDS011;3866;48.020;11.720;2023-09-30T12:11:58;17.87;;;9.40;;
7647;SDS011;3866;48.020;11.720;2023-09-30T12:14:27;24.50;;;11.43;;
7647;SDS011;3866;48.020;11.720;2023-09-30T12:16:56;21.83;;;10.93;;
7647;SDS011;3866;48.020;11.720;2023-09-30T12:19:25;21.83;;;10.77;;
7647;SDS011;3866;48.020;11.720;2023-09-30T12:21:52;20.53;;;10.13;;
7647;SDS011;3866;48.020;11.720;2023-09-30T12:24:21;19.40;;;10.60;;
7647;SDS011;3866;48.020;11.720;2023-09-30T12:26:50;19.90;;;10.67;;
7647;SDS011;3866;48.020;11.720;2023-09-30T12:29:18;21.17;;;11.60;;
7647;SDS011;3866;48.020;11.720;2023-09-30T12:31:49;23.23;;;11.50;;
7647;SDS011;3866;48.020;11.720;2023-09-30T12:34:18;19.00;;;10.07;;
7647;SDS011;3866;48.020;11.720;2023-09-30T12:36:48;21.87;;;11.07;;
7647;SDS011;3866;48.020;11.720;2023-09-30T12:39:15;20.80;;;10.70;;
7647;SDS011;3866;48.020;11.720;2023-09-30T12:41:52;22.47;;;11.00;;
7647;SDS011;3866;48.020;11.720;2023-09-30T12:44:22;21.73;;;11.27;;
7647;SDS011;3866;48.020;11.720;2023-09-30T12:46:50;19.07;;;10.03;;
7647;SDS011;3866;48.020;11.720;2023-09-30T12:49:17;19.33;;;10.53;;
7647;SDS011;3866;48.020;11.720;2023-09-30T12:51:45;20.67;;;10.43;;
7647;SDS011;3866;48.020;11.720;2023-09-30T12:54:12;18.97;;;10.30;;
7647;SDS011;3866;48.020;11.720;2023-09-30T12:56:43;19.53;;;9.60;;
7647;SDS011;3866;48.020;11.720;2023-09-30T12:59:14;18.83;;;10.27;;
7647;SDS011;3866;48.020;11.720;2023-09-30T13:01:56;19.50;;;10.03;;
7647;SDS011;3866;48.020;11.720;2023-09-30T13:04:24;17.33;;;9.13;;
7647;SDS011;3866;48.020;11.720;2023-09-30T13:06:53;14.87;;;8.73;;
7647;SDS011;3866;48.020;11.720;2023-09-30T13:09:20;16.63;;;8.77;;
7647;SDS011;3866;48.020;11.720;2023-09-30T13:11:51;17.13;;;8.27;;
7647;SDS011;3866;48.020;11.720;2023-09-30T13:14:26;16.70;;;8.63;;
7647;SDS011;3866;48.020;11.720;2023-09-30T13:16:54;17.60;;;8.37;;
7647;SDS011;3866;48.020;11.720;2023-09-30T13:19:22;16.37;;;8.43;;
7647;SDS011;3866;48.020;11.720;2023-09-30T13:21:49;16.30;;;8.60;;
7647;SDS011;3866;48.020;11.720;2023-09-30T13:24:20;16.03;;;9.33;;
7647;SDS011;3866;48.020;11.720;2023-09-30T13:26:49;16.33;;;8.23;;
7647;SDS011;3866;48.020;11.720;2023-09-30T13:29:21;15.67;;;8.63;;
7647;SDS011;3866;48.020;11.720;2023-09-30T13:31:52;18.93;;;9.27;;
7647;SDS011;3866;48.020;11.720;2023-09-30T13:34:21;17.67;;;8.90;;
7647;SDS011;3866;48.020;11.720;2023-09-30T13:36:49;17.23;;;10.77;;
7647;SDS011;3866;48.020;11.720;2023-09-30T13:39:18;18.50;;;9.47;;
7647;SDS011;3866;48.020;11.720;2023-09-30T13:41:47;14.30;;;8.37;;
7647;SDS011;3866;48.020;11.720;2023-09-30T13:44:16;17.20;;;8.80;;
7647;SDS011;3866;48.020;11.720;2023-09-30T13:47:00;18.63;;;9.63;;
7647;SDS011;3866;48.020;11.720;2023-09-30T13:49:29;14.03;;;7.87;;
7647;SDS011;3866;48.020;11.720;2023-09-30T13:51:58;15.40;;;7.97;;
7647;SDS011;3866;48.020;11.720;2023-09-30T13:54:30;15.33;;;7.97;;
7647;SDS011;3866;48.020;11.720;2023-09-30T13:57:00;13.10;;;6.90;;
7647;SDS011;3866;48.020;11.720;2023-09-30T13:59:28;13.27;;;7.60;;
7647;SDS011;3866;48.020;11.720;2023-09-30T14:02:06;14.57;;;8.00;;
7647;SDS011;3866;48.020;11.720;2023-09-30T14:04:35;14.03;;;7.47;;
7647;SDS011;3866;48.020;11.720;2023-09-30T14:07:05;14.43;;;7.50;;
7647;SDS011;3866;48.020;11.720;2023-09-30T14:09:34;13.07;;;7.20;;
7647;SDS011;3866;48.020;11.720;2023-09-30T14:12:04;14.47;;;7.90;;
7647;SDS011;3866;48.020;11.720;2023-09-30T14:14:34;14.50;;;7.20;;
7647;SDS011;3866;48.020;11.720;2023-09-30T14:17:08;13.30;;;7.67;;
7647;SDS011;3866;48.020;11.720;2023-09-30T14:19:37;15.30;;;7.63;;
7647;SDS011;3866;48.020;11.720;2023-09-30T14:22:06;13.47;;;7.30;;
7647;SDS011;3866;48.020;11.720;2023-09-30T14:24:35;14.90;;;8.43;;
7647;SDS011;3866;48.020;11.720;2023-09-30T14:27:03;11.30;;;7.43;;
7647;SDS011;3866;48.020;11.720;2023-09-30T14:29:33;14.30;;;7.70;;
7647;SDS011;3866;48.020;11.720;2023-09-30T14:32:04;13.87;;;8.03;;
7647;SDS011;3866;48.020;11.720;2023-09-30T14:34:33;17.53;;;8.40;;
7647;SDS011;3866;48.020;11.720;2023-09-30T14:37:00;17.70;;;9.57;;
7647;SDS011;3866;48.020;11.720;2023-09-30T14:39:27;15.77;;;8.07;;
7647;SDS011;3866;48.020;11.720;2023-09-30T14:41:55;15.80;;;8.77;;
7647;SDS011;3866;48.020;11.720;2023-09-30T14:44:23;23.73;;;15.53;;
7647;SDS011;3866;48.020;11.720;2023-09-30T14:46:52;16.63;;;8.47;;
7647;SDS011;3866;48.020;11.720;2023-09-30T14:49:22;13.87;;;7.27;;
7647;SDS011;3866;48.020;11.720;2023-09-30T14:51:51;14.97;;;7.60;;
7647;SDS011;3866;48.020;11.720;2023-09-30T14:54:20;16.23;;;8.07;;
7647;SDS011;3866;48.020;11.720;2023-09-30T14:56:48;16.57;;;8.57;;
7647;SDS011;3866;48.020;11.720;2023-09-30T14:59:16;15.97;;;7.77;;
7647;SDS011;3866;48.020;11.720;2023-09-30T15:01:44;12.97;;;7.37;;
7647;SDS011;3866;48.020;11.720;2023-09-30T15:04:11;71.70;;;59.53;;
7647;SDS011;3866;48.020;11.720;2023-09-30T15:06:39;16.97;;;9.47;;
7647;SDS011;3866;48.020;11.720;2023-09-30T15:09:09;14.77;;;7.93;;
7647;SDS011;3866;48.020;11.720;2023-09-30T15:11:38;16.23;;;8.30;;